Stations météo

réclame
Mon MeteoGroup
Lus-La-Croix-Haute, France (7587): Température de l'air & dewpoint: 12.01.2020 14:00:00 - 18.01.2020 14:00:00 (CET)Lus-La-Croix-Haute, France (7587): Vitesse du vent & gusts: 12.01.2020 14:00:00 - 18.01.2020 14:00:00 (CET)Lus-La-Croix-Haute, France (7587): Direction du vent: 12.01.2020 14:00:00 - 18.01.2020 14:00:00 (CET)Lus-La-Croix-Haute, France (7587): Quantités de précipitations: 12.01.2020 14:00:00 - 18.01.2020 14:00:00 (CET)
Date & Time tt [°C] td [°C] ff [km/h] ff [knt] fx [km/h] fx [knt] dd rr [mm]
18.01.2020 14:00:00 - - - - - - - -
18.01.2020 13:00:00 1,1 -2,8 13 7 39 21 NNW -
18.01.2020 12:00:00 0,9 -2,9 11 6 34 18 NNW 0,0
18.01.2020 11:00:00 0,6 -3,7 13 7 31 17 NW 0,0
18.01.2020 10:00:00 0,2 -3,5 11 6 29 16 NW 0,0
18.01.2020 09:00:00 0,0 -3,7 5 3 37 20 NNW 0,0
18.01.2020 08:00:00 0,1 -3,8 4 2 29 16 NE 0,0
18.01.2020 07:00:00 0,3 -3,1 5 3 37 20 N -
18.01.2020 06:00:00 0,7 -3,0 11 6 63 34 N 0,0
18.01.2020 05:00:00 1,2 -3,1 15 8 87 47 NNW 0,0
18.01.2020 04:00:00 1,7 -3,8 26 14 61 33 N 0,0
18.01.2020 03:00:00 1,8 -2,2 26 14 65 35 N 0,0
18.01.2020 02:00:00 1,4 -1,3 15 8 54 29 NNW 0,0
18.01.2020 01:00:00 1,7 -1,7 21 11 70 38 N -
18.01.2020 00:00:00 1,4 -1,3 21 11 57 31 NNW 0,0
17.01.2020 23:00:00 1,4 -0,8 26 14 67 36 NNW 0,0
17.01.2020 22:00:00 1,7 -0,4 18 10 57 31 N 0,4
17.01.2020 21:00:00 1,4 0,2 13 7 41 22 NNW 1,0
17.01.2020 20:00:00 1,4 0,7 15 8 31 17 NW 0,8
17.01.2020 19:00:00 0,9 0,3 4 2 26 14 SE -
17.01.2020 18:00:00 0,5 -0,2 4 2 16 9 N 2,0
17.01.2020 17:00:00 0,5 -0,4 4 2 18 10 NE 4,0
17.01.2020 16:00:00 2,1 0,9 8 4 26 14 NW 4,0
17.01.2020 15:00:00 3,8 2,8 4 2 24 13 NNW 0,8
17.01.2020 14:00:00 3,5 2,2 4 2 16 9 ENE 0,8
17.01.2020 13:00:00 3,7 2,1 4 2 15 8 NW -
17.01.2020 12:00:00 3,8 1,8 4 2 31 17 SSW 0,0
17.01.2020 11:00:00 3,9 1,3 11 6 29 16 SW 0,0
17.01.2020 10:00:00 3,6 0,5 9 5 28 15 SSW 0,0
17.01.2020 09:00:00 3,6 0,1 9 5 34 18 SSW 0,0
17.01.2020 08:00:00 3,9 -0,9 11 6 28 15 SSW 0,0
17.01.2020 07:00:00 4,3 -1,1 11 6 24 13 SSW -
17.01.2020 06:00:00 4,6 -1,4 11 6 29 16 SSW 0,0
17.01.2020 05:00:00 4,6 -0,6 11 6 28 15 SSW 0,0
17.01.2020 04:00:00 4,5 -0,3 5 3 29 16 SW 0,0
17.01.2020 03:00:00 4,5 0,1 13 7 37 20 SSW 0,0
17.01.2020 02:00:00 4,6 0,0 21 11 37 20 SSW 0,0
17.01.2020 01:00:00 5,2 -0,2 15 8 37 20 S -
17.01.2020 00:00:00 5,1 -0,5 13 7 37 20 S 0,0
16.01.2020 23:00:00 4,3 -0,3 15 8 29 16 SSW 0,0
16.01.2020 22:00:00 3,9 -0,3 16 9 34 18 SSW 0,0
16.01.2020 21:00:00 3,2 -0,8 15 8 26 14 SSW 0,0
16.01.2020 20:00:00 3,8 -0,8 11 6 22 12 SSW 0,0
16.01.2020 19:00:00 3,7 -1,3 11 6 26 14 SSW -
16.01.2020 18:00:00 3,9 -1,5 9 5 29 16 SSW 0,0
16.01.2020 17:00:00 5,6 -1,6 15 8 34 18 SSW 0,0
16.01.2020 16:00:00 7,6 -1,1 18 10 35 19 SSW 0,0
16.01.2020 15:00:00 8,4 -0,6 16 9 37 20 SSW 0,0
16.01.2020 14:00:00 8,3 -1,0 16 9 35 19 SSW 0,0
16.01.2020 13:00:00 7,8 -0,9 18 10 37 20 SSW -
16.01.2020 12:00:00 5,7 0,8 5 3 21 11 SSW 0,0
16.01.2020 11:00:00 1,7 0,4 2 1 8 4 SSW 0,0
16.01.2020 10:00:00 -1,1 -1,7 0 0 8 4 N 0,0
16.01.2020 09:00:00 -3,7 -4,4 2 1 8 4 N 0,0
16.01.2020 08:00:00 -4,1 -5,1 4 2 5 3 SSE 0,0
16.01.2020 07:00:00 -3,4 -4,2 0 0 8 4 N -
16.01.2020 06:00:00 -3,7 -4,7 2 1 8 4 E 0,0
16.01.2020 05:00:00 -2,6 -3,2 4 2 8 4 NNW 0,0
16.01.2020 04:00:00 -2,7 -3,4 0 0 5 3 N 0,0
16.01.2020 03:00:00 -2,3 -3,0 0 0 8 4 N 0,0
16.01.2020 02:00:00 -2,2 -2,9 0 0 5 3 N 0,0
16.01.2020 01:00:00 -1,6 -2,3 2 1 5 3 NNE -
16.01.2020 00:00:00 -0,9 -1,9 2 1 5 3 SSE 0,0
15.01.2020 23:00:00 0,0 -0,9 0 0 9 5 N 0,0
15.01.2020 22:00:00 0,3 -1,3 4 2 8 4 ESE 0,0
15.01.2020 21:00:00 2,5 0,2 4 2 9 5 NNW 0,0
15.01.2020 20:00:00 3,1 0,7 4 2 13 7 ESE 0,0
15.01.2020 19:00:00 3,4 0,3 4 2 22 12 SE -
15.01.2020 18:00:00 4,9 0,8 8 4 29 16 SSW 0,0
15.01.2020 17:00:00 5,5 0,8 11 6 29 16 S 0,0
15.01.2020 16:00:00 6,3 0,4 16 9 52 28 S 0,0
15.01.2020 15:00:00 6,1 0,8 22 12 44 24 SSE 0,0
15.01.2020 14:00:00 6,2 0,5 24 13 50 27 SSE 0,0
15.01.2020 13:00:00 6,3 0,2 29 16 70 38 SE -
15.01.2020 12:00:00 5,8 -0,3 29 16 61 33 SE 0,0
15.01.2020 11:00:00 5,9 -1,5 26 14 59 32 SE 0,0
15.01.2020 10:00:00 5,7 -1,0 28 15 59 32 SE 0,0
15.01.2020 09:00:00 5,1 -1,4 26 14 59 32 SSE 0,0
15.01.2020 08:00:00 4,5 -1,9 26 14 52 28 SE 0,0
15.01.2020 07:00:00 4,2 -2,0 28 15 59 32 SSE -
15.01.2020 06:00:00 3,8 -2,0 24 13 61 33 SSE 0,0
15.01.2020 05:00:00 3,8 -1,8 18 10 42 23 SSE 0,0
15.01.2020 04:00:00 3,6 -2,2 11 6 44 24 S 0,0
15.01.2020 03:00:00 4,3 -1,3 16 9 44 24 SSE 0,0
15.01.2020 02:00:00 4,2 -1,2 24 13 44 24 SSE 0,0
15.01.2020 01:00:00 3,0 -1,6 8 4 28 15 S -
15.01.2020 00:00:00 3,2 -1,2 15 8 42 23 SSW 0,0
14.01.2020 23:00:00 3,1 -1,5 21 11 42 23 SSW 0,0
14.01.2020 22:00:00 3,1 -1,7 21 11 35 19 SSW 0,0
14.01.2020 21:00:00 3,2 -1,9 21 11 35 19 SSW 0,0
14.01.2020 20:00:00 3,1 -2,0 16 9 34 18 SSW 0,0
14.01.2020 19:00:00 3,4 -1,8 16 9 35 19 SSW -
14.01.2020 18:00:00 3,4 -2,0 15 8 39 21 SSW 0,0
14.01.2020 17:00:00 4,4 -2,0 21 11 39 21 SSW 0,0
14.01.2020 16:00:00 4,7 -2,2 15 8 35 19 SSW 0,0
14.01.2020 15:00:00 4,6 -2,5 13 7 34 18 S 0,0
14.01.2020 14:00:00 7,6 -0,9 13 7 35 19 S 0,0
14.01.2020 13:00:00 4,7 -1,3 16 9 39 21 SSW -
14.01.2020 12:00:00 4,6 -1,6 18 10 37 20 SSW 0,0
14.01.2020 11:00:00 4,3 -1,5 16 9 31 17 SSW 0,0
14.01.2020 10:00:00 2,8 -1,9 15 8 26 14 SSW 0,0
14.01.2020 09:00:00 0,0 -2,5 9 5 18 10 SSE 0,0
14.01.2020 08:00:00 -0,1 -3,0 4 2 21 11 ESE 0,0
14.01.2020 07:00:00 0,3 -2,9 9 5 24 13 SSW -
14.01.2020 06:00:00 0,1 -3,1 8 4 26 14 SSE 0,0
14.01.2020 05:00:00 0,7 -3,0 4 2 22 12 SSE 0,0
14.01.2020 04:00:00 0,2 -3,0 9 5 24 13 S 0,0
14.01.2020 03:00:00 -1,0 -3,2 11 6 26 14 S 0,0
14.01.2020 02:00:00 -3,7 -4,7 4 2 9 5 SSW 0,0
14.01.2020 01:00:00 -4,0 -5,5 2 1 5 3 ESE -
14.01.2020 00:00:00 -3,3 -4,9 0 0 5 3 N 0,0
13.01.2020 23:00:00 -2,7 -4,9 0 0 11 6 N 0,0
13.01.2020 22:00:00 -1,5 -5,0 4 2 15 8 SSE 0,0
13.01.2020 21:00:00 -1,4 -4,7 4 2 11 6 SE 0,0
13.01.2020 20:00:00 -0,6 -5,4 2 1 11 6 SE 0,0
13.01.2020 19:00:00 2,0 -3,9 4 2 15 8 S -
13.01.2020 18:00:00 3,2 -5,5 5 3 24 13 S 0,0
13.01.2020 17:00:00 4,9 -6,1 11 6 28 15 SSW 0,0
13.01.2020 16:00:00 6,9 -6,5 9 5 28 15 SSW 0,0
13.01.2020 15:00:00 8,2 -6,0 13 7 34 18 SSW 0,0
13.01.2020 14:00:00 8,3 -5,6 18 10 35 19 SSW 0,0
13.01.2020 13:00:00 8,8 -4,4 9 5 21 11 S -
13.01.2020 12:00:00 5,0 -4,3 2 1 5 3 W 0,0
13.01.2020 11:00:00 2,0 -5,0 2 1 8 4 S 0,0
13.01.2020 10:00:00 -1,2 -6,6 0 0 5 3 N 0,0
13.01.2020 09:00:00 -3,4 -7,4 4 2 5 3 N 0,0
13.01.2020 08:00:00 -3,3 -7,6 2 1 5 3 W 0,0
13.01.2020 07:00:00 -2,7 -7,8 4 2 8 4 N -
13.01.2020 06:00:00 -2,3 -7,4 2 1 8 4 N 0,0
13.01.2020 05:00:00 -2,1 -7,6 0 0 9 5 N 0,0
13.01.2020 04:00:00 -0,8 -7,2 2 1 9 5 NNW 0,0
13.01.2020 03:00:00 0,0 -6,4 2 1 11 6 E 0,0
13.01.2020 02:00:00 0,2 -5,4 4 2 15 8 NNE 0,0
13.01.2020 01:00:00 -0,1 -5,5 5 3 15 8 NNE -
13.01.2020 00:00:00 0,3 -4,9 4 2 13 7 ENE 0,0
12.01.2020 23:00:00 0,6 -5,2 4 2 22 12 E 0,0
12.01.2020 22:00:00 1,3 -5,4 8 4 28 15 NNW 0,0
12.01.2020 21:00:00 1,9 -5,5 5 3 24 13 N 0,0
12.01.2020 20:00:00 2,2 -5,0 8 4 21 11 N 0,0
12.01.2020 19:00:00 1,8 -5,8 4 2 18 10 N -
12.01.2020 18:00:00 2,9 -5,8 4 2 21 11 NNW 0,0
12.01.2020 17:00:00 4,7 -5,4 5 3 39 21 N 0,0
12.01.2020 16:00:00 7,6 -4,5 18 10 34 18 NW 0,0
12.01.2020 15:00:00 10,5 -1,6 4 2 11 6 S 0,0
12.01.2020 14:00:00 10,0 -2,0 8 4 13 7 S 0,0

tt = Température de l'air
td = dewpoint
ff = Vitesse du vent
fx = gusts
dd = Direction du vent
rr = Quantités de précipitations

stations d'obs. à proximité